Agua Caliente, California
Current Conditions -  °F | °C
As of 4:10 AM on Friday 31 Oct 2014 (Local Time) from KO69 Reporting Station
Overcast Overcast  
Wind Chill: 15°   Ceiling: 1900
Heat Index: 15°   Visibility: 10mi
Dew Point: 14°   Wind: 6mph
Humidity: 94%   Direction: 80°E
Pressure: 29.88"   Gusts: NA
Location:  38.257°N, 122.459°W
Report Text: KO69 311110Z AUTO 08005KT 10SM BKN019 OVC027 15/14 A2988 RMK AO1
Loading
Personal Weather Stations






























Interactive Weather Map
Tropical Storm Tracking
New forecast layout! Learn more

10-Day Weather Forecast

Advertisements
Track Severe Weather on mobile